Time,TemperatureF,DewpointF,PressureIn,WindDirection,WindDirectionDegrees,WindSpeedMPH,WindSpeedGustMPH,Humidity,HourlyPrecipIn,Conditions,Clouds,dailyrainin,SolarRadiationWatts/m^2,SoftwareType,DateUTC
2013-02-06 00:03:00,31.6,25.0,30.08,NNW,328,7.0,-999.0,77,-99.99,,,0.00,0,weatherlink.com 1.10,2013-02-06 06:03:00,
2013-02-06 00:18:00,31.0,25.0,30.08,NW,323,5.0,-999.0,78,-99.99,,,0.00,0,weatherlink.com 1.10,2013-02-06 06:18:00,
2013-02-06 00:33:00,30.4,24.0,30.08,NW,312,4.0,-999.0,78,-99.99,,,0.00,0,weatherlink.com 1.10,2013-02-06 06:33:00,
2013-02-06 00:48:00,30.0,24.0,30.08,NW,313,5.0,-999.0,79,-99.99,,,0.00,0,weatherlink.com 1.10,2013-02-06 06:48:00,
2013-02-06 01:04:00,29.5,24.0,30.08,NW,309,4.0,-999.0,80,-99.99,,,0.00,0,weatherlink.com 1.10,2013-02-06 07:04:00,
2013-02-06 01:19:00,29.4,24.0,30.09,NW,313,2.0,-999.0,80,-99.99,,,0.00,0,weatherlink.com 1.10,2013-02-06 07:19:00,
2013-02-06 01:34:00,29.4,24.0,30.09,NW,325,6.0,-999.0,80,-99.99,,,0.00,0,weatherlink.com 1.10,2013-02-06 07:34:00,
2013-02-06 01:49:00,28.7,23.0,30.10,NW,326,4.0,-999.0,79,-99.99,,,0.00,0,weatherlink.com 1.10,2013-02-06 07:49:00,
2013-02-06 02:04:00,27.2,22.0,30.10,NNW,340,3.0,-999.0,80,-99.99,,,0.00,0,weatherlink.com 1.10,2013-02-06 08:04:00,
2013-02-06 02:19:00,26.4,22.0,30.11,North,355,3.0,-999.0,82,-99.99,,,0.00,0,weatherlink.com 1.10,2013-02-06 08:19:00,
2013-02-06 02:34:00,26.0,22.0,30.12,North,5,0.0,-999.0,83,-99.99,,,0.00,0,weatherlink.com 1.10,2013-02-06 08:34:00,
2013-02-06 02:49:00,25.6,21.0,30.11,North,5,1.0,-999.0,84,-99.99,,,0.00,0,weatherlink.com 1.10,2013-02-06 08:49:00,
2013-02-06 03:04:00,23.9,20.0,30.11,North,5,1.0,-999.0,84,-99.99,,,0.00,0,weatherlink.com 1.10,2013-02-06 09:04:00,
2013-02-06 03:19:00,22.5,19.0,30.12,NNE,24,2.0,-999.0,85,-99.99,,,0.00,0,weatherlink.com 1.10,2013-02-06 09:19:00,
2013-02-06 03:34:00,22.9,19.0,30.12,NNE,24,0.0,-999.0,86,-99.99,,,0.00,0,weatherlink.com 1.10,2013-02-06 09:34:00,
2013-02-06 03:49:00,23.5,20.0,30.12,NNE,24,0.0,-999.0,86,-99.99,,,0.00,0,weatherlink.com 1.10,2013-02-06 09:49:00,
2013-02-06 04:04:00,22.7,19.0,30.13,NNE,26,2.0,-999.0,84,-99.99,,,0.00,0,weatherlink.com 1.10,2013-02-06 10:04:00,
2013-02-06 04:19:00,22.2,18.0,30.14,NNE,27,0.0,-999.0,85,-99.99,,,0.00,0,weatherlink.com 1.10,2013-02-06 10:19:00,
2013-02-06 04:34:00,22.2,18.0,30.13,NNE,27,0.0,-999.0,85,-99.99,,,0.00,0,weatherlink.com 1.10,2013-02-06 10:34:00,
2013-02-06 04:49:00,21.8,18.0,30.14,NNE,27,0.0,-999.0,85,-99.99,,,0.00,0,weatherlink.com 1.10,2013-02-06 10:49:00,
2013-02-06 05:04:00,21.1,17.0,30.14,NNE,27,0.0,-999.0,85,-99.99,,,0.00,0,weatherlink.com 1.10,2013-02-06 11:04:00,
2013-02-06 05:19:00,21.3,18.0,30.14,NNE,27,0.0,-999.0,86,-99.99,,,0.00,0,weatherlink.com 1.10,2013-02-06 11:19:00,
2013-02-06 07:24:00,20.3,17.0,30.16,South,179,2.0,-999.0,86,-99.99,,,0.00,18,weatherlink.com 1.10,2013-02-06 13:24:00,
2013-02-06 07:34:00,21.0,18.0,30.16,South,180,2.0,-999.0,87,-99.99,,,0.00,33,weatherlink.com 1.10,2013-02-06 13:34:00,
2013-02-06 07:49:00,22.2,19.0,30.17,South,179,2.0,-999.0,87,-99.99,,,0.00,72,weatherlink.com 1.10,2013-02-06 13:49:00,
2013-02-06 08:05:00,24.4,21.0,30.16,South,178,0.0,-999.0,88,-99.99,,,0.00,121,weatherlink.com 1.10,2013-02-06 14:05:00,
2013-02-06 08:20:00,25.7,22.0,30.16,South,175,0.0,-999.0,86,-99.99,,,0.00,176,weatherlink.com 1.10,2013-02-06 14:20:00,
2013-02-06 08:35:00,28.4,25.0,30.17,South,175,3.0,-999.0,85,-99.99,,,0.00,206,weatherlink.com 1.10,2013-02-06 14:35:00,
2013-02-06 08:50:00,29.8,25.0,30.16,SE,128,4.0,-999.0,82,-99.99,,,0.00,253,weatherlink.com 1.10,2013-02-06 14:50:00,
2013-02-06 09:05:00,31.0,26.0,30.15,SE,142,7.0,-999.0,81,-99.99,,,0.00,292,weatherlink.com 1.10,2013-02-06 15:05:00,
2013-02-06 09:20:00,31.6,26.0,30.15,SSE,155,10.0,-999.0,80,-99.99,,,0.00,330,weatherlink.com 1.10,2013-02-06 15:20:00,
2013-02-06 09:35:00,32.9,27.0,30.15,SE,124,9.0,-999.0,79,-99.99,,,0.00,364,weatherlink.com 1.10,2013-02-06 15:35:00,
2013-02-06 09:50:00,33.8,27.0,30.16,SE,143,11.0,-999.0,77,-99.99,,,0.00,397,weatherlink.com 1.10,2013-02-06 15:50:00,
2013-02-06 10:05:00,34.6,28.0,30.16,South,185,13.0,-999.0,76,-99.99,,,0.00,427,weatherlink.com 1.10,2013-02-06 16:05:00,
2013-02-06 10:20:00,35.5,29.0,30.16,South,178,11.0,-999.0,77,-99.99,,,0.00,450,weatherlink.com 1.10,2013-02-06 16:20:00,
2013-02-06 10:35:00,36.3,30.0,30.16,South,176,6.0,-999.0,77,-99.99,,,0.00,476,weatherlink.com 1.10,2013-02-06 16:35:00,
2013-02-06 10:50:00,37.0,30.0,30.17,South,186,14.0,-999.0,76,-99.99,,,0.00,499,weatherlink.com 1.10,2013-02-06 16:50:00,
2013-02-06 11:05:00,37.5,31.0,30.16,SW,221,13.0,-999.0,76,-99.99,,,0.00,492,weatherlink.com 1.10,2013-02-06 17:05:00,
2013-02-06 11:20:00,38.6,31.0,30.16,SSW,200,11.0,-999.0,75,-99.99,,,0.00,533,weatherlink.com 1.10,2013-02-06 17:20:00,
2013-02-06 11:35:00,39.2,31.0,30.16,SSW,202,13.0,-999.0,73,-99.99,,,0.00,545,weatherlink.com 1.10,2013-02-06 17:35:00,
2013-02-06 11:50:00,40.1,32.0,30.14,WSW,244,12.0,-999.0,74,-99.99,,,0.00,547,weatherlink.com 1.10,2013-02-06 17:50:00,
2013-02-06 12:05:00,40.6,33.0,30.14,SW,227,13.0,-999.0,74,-99.99,,,0.00,548,weatherlink.com 1.10,2013-02-06 18:05:00,
2013-02-06 12:20:00,40.9,33.0,30.13,SSW,194,11.0,-999.0,74,-99.99,,,0.00,591,weatherlink.com 1.10,2013-02-06 18:20:00,
2013-02-06 12:35:00,41.5,34.0,30.12,SSW,210,15.0,-999.0,74,-99.99,,,0.00,545,weatherlink.com 1.10,2013-02-06 18:35:00,
2013-02-06 12:50:00,42.2,34.0,30.11,South,187,13.0,-999.0,72,-99.99,,,0.00,580,weatherlink.com 1.10,2013-02-06 18:50:00,
2013-02-06 13:05:00,41.6,33.0,30.11,SSE,159,12.0,-999.0,72,-99.99,,,0.00,446,weatherlink.com 1.10,2013-02-06 19:05:00,
2013-02-06 13:20:00,42.6,34.0,30.11,SSW,200,15.0,-999.0,72,-99.99,,,0.00,439,weatherlink.com 1.10,2013-02-06 19:20:00,
2013-02-06 13:35:00,42.2,34.0,30.11,SSW,196,11.0,-999.0,72,-99.99,,,0.00,376,weatherlink.com 1.10,2013-02-06 19:35:00,
2013-02-06 13:50:00,42.9,35.0,30.10,SSW,195,19.0,-999.0,73,-99.99,,,0.00,471,weatherlink.com 1.10,2013-02-06 19:50:00,
2013-02-06 14:06:00,43.3,35.0,30.09,South,174,16.0,-999.0,72,-99.99,,,0.00,471,weatherlink.com 1.10,2013-02-06 20:06:00,
2013-02-06 14:21:00,43.9,35.0,30.10,SSE,167,11.0,-999.0,70,-99.99,,,0.00,441,weatherlink.com 1.10,2013-02-06 20:21:00,
2013-02-06 14:36:00,43.3,34.0,30.09,SSE,160,12.0,-999.0,70,-99.99,,,0.00,345,weatherlink.com 1.10,2013-02-06 20:36:00,
2013-02-06 14:51:00,42.8,34.0,30.08,South,174,13.0,-999.0,70,-99.99,,,0.00,232,weatherlink.com 1.10,2013-02-06 20:51:00,
2013-02-06 15:06:00,42.8,34.0,30.08,SSE,164,9.0,-999.0,72,-99.99,,,0.00,197,weatherlink.com 1.10,2013-02-06 21:06:00,
2013-02-06 15:21:00,42.8,34.0,30.08,SE,146,11.0,-999.0,72,-99.99,,,0.00,165,weatherlink.com 1.10,2013-02-06 21:21:00,
2013-02-06 15:36:00,42.5,34.0,30.07,SE,134,9.0,-999.0,71,-99.99,,,0.00,139,weatherlink.com 1.10,2013-02-06 21:36:00,
2013-02-06 15:51:00,42.1,34.0,30.07,SE,134,6.0,-999.0,73,-99.99,,,0.00,77,weatherlink.com 1.10,2013-02-06 21:51:00,
2013-02-06 16:06:00,40.3,33.0,30.07,ESE,117,5.0,-999.0,76,-99.99,,,0.00,42,weatherlink.com 1.10,2013-02-06 22:06:00,
2013-02-06 16:21:00,38.3,32.0,30.06,SE,125,3.0,-999.0,79,-99.99,,,0.00,37,weatherlink.com 1.10,2013-02-06 22:21:00,
2013-02-06 16:36:00,38.3,33.0,30.06,ESE,122,5.0,-999.0,80,-99.99,,,0.00,49,weatherlink.com 1.10,2013-02-06 22:36:00,
2013-02-06 16:51:00,38.3,33.0,30.05,SE,128,4.0,-999.0,81,-99.99,,,0.00,49,weatherlink.com 1.10,2013-02-06 22:51:00,
2013-02-06 17:06:00,38.0,33.0,30.06,SE,125,2.0,-999.0,81,-99.99,,,0.00,12,weatherlink.com 1.10,2013-02-06 23:06:00,
2013-02-06 17:21:00,36.8,32.0,30.06,ESE,123,2.0,-999.0,82,-99.99,,,0.00,0,weatherlink.com 1.10,2013-02-06 23:21:00,
2013-02-06 17:36:00,36.3,32.0,30.06,SE,131,6.0,-999.0,83,-99.99,,,0.00,0,weatherlink.com 1.10,2013-02-06 23:36:00,
2013-02-06 17:51:00,35.9,32.0,30.06,SE,132,9.0,-999.0,84,-99.99,,,0.00,0,weatherlink.com 1.10,2013-02-06 23:51:00,
2013-02-06 18:06:00,35.9,32.0,30.06,ESE,123,7.0,-999.0,84,-99.99,,,0.00,0,weatherlink.com 1.10,2013-02-07 00:06:00,
2013-02-06 18:21:00,35.6,32.0,30.06,SE,128,7.0,-999.0,85,-99.99,,,0.00,0,weatherlink.com 1.10,2013-02-07 00:21:00,
2013-02-06 18:36:00,35.6,32.0,30.05,ESE,122,4.0,-999.0,85,-99.99,,,0.00,0,weatherlink.com 1.10,2013-02-07 00:36:00,
2013-02-06 18:51:00,35.6,32.0,30.05,SE,143,9.0,-999.0,86,-99.99,,,0.00,0,weatherlink.com 1.10,2013-02-07 00:51:00,
2013-02-06 19:06:00,37.3,32.0,30.05,SE,126,9.0,-999.0,82,-99.99,,,0.00,0,weatherlink.com 1.10,2013-02-07 01:06:00,
2013-02-06 19:21:00,36.6,32.0,30.04,SE,125,5.0,-999.0,82,-99.99,,,0.00,0,weatherlink.com 1.10,2013-02-07 01:21:00,
2013-02-06 19:36:00,37.5,33.0,30.04,SE,133,10.0,-999.0,83,-99.99,,,0.00,0,weatherlink.com 1.10,2013-02-07 01:36:00,
2013-02-06 19:51:00,37.9,33.0,30.02,SE,142,13.0,-999.0,81,-99.99,,,0.00,0,weatherlink.com 1.10,2013-02-07 01:51:00,
2013-02-06 20:06:00,39.1,32.0,30.02,SE,146,17.0,-999.0,77,-99.99,,,0.00,0,weatherlink.com 1.10,2013-02-07 02:06:00,
2013-02-06 20:21:00,38.9,32.0,30.01,SE,144,16.0,-999.0,76,-99.99,,,0.00,0,weatherlink.com 1.10,2013-02-07 02:21:00,
2013-02-06 20:36:00,38.8,32.0,30.00,SSE,154,17.0,-999.0,77,-99.99,,,0.00,0,weatherlink.com 1.10,2013-02-07 02:36:00,
2013-02-06 20:51:00,38.3,32.0,30.02,SSE,157,16.0,-999.0,77,-99.99,,,0.00,0,weatherlink.com 1.10,2013-02-07 02:51:00,
2013-02-06 21:06:00,38.3,32.0,30.01,SE,143,11.0,-999.0,78,-99.99,,,0.00,0,weatherlink.com 1.10,2013-02-07 03:06:00,
2013-02-06 21:21:00,37.9,32.0,30.00,SSE,156,16.0,-999.0,80,-99.99,,,0.00,0,weatherlink.com 1.10,2013-02-07 03:21:00,
2013-02-06 21:36:00,37.6,32.0,30.00,SE,146,16.0,-999.0,80,-99.99,,,0.00,0,weatherlink.com 1.10,2013-02-07 03:36:00,
2013-02-06 21:51:00,37.6,32.0,30.00,SSE,153,14.0,-999.0,80,-99.99,,,0.00,0,weatherlink.com 1.10,2013-02-07 03:51:00,
2013-02-06 22:06:00,37.5,32.0,30.00,SSE,164,18.0,-999.0,80,-99.99,,,0.00,0,weatherlink.com 1.10,2013-02-07 04:06:00,
2013-02-06 22:21:00,37.5,32.0,29.98,South,169,20.0,-999.0,80,-99.99,,,0.00,0,weatherlink.com 1.10,2013-02-07 04:21:00,
2013-02-06 22:36:00,37.9,32.0,29.98,SSE,163,16.0,-999.0,79,-99.99,,,0.00,0,weatherlink.com 1.10,2013-02-07 04:36:00,
2013-02-06 22:51:00,37.9,32.0,29.98,SSE,164,17.0,-999.0,79,-99.99,,,0.00,0,weatherlink.com 1.10,2013-02-07 04:51:00,
2013-02-06 23:06:00,37.6,32.0,29.98,SSE,163,17.0,-999.0,79,-99.99,,,0.00,0,weatherlink.com 1.10,2013-02-07 05:06:00,
2013-02-06 23:21:00,37.6,32.0,29.98,SSE,157,20.0,-999.0,80,-99.99,,,0.00,0,weatherlink.com 1.10,2013-02-07 05:21:00,
2013-02-06 23:36:00,37.6,32.0,30.03,WSW,257,6.0,-999.0,80,-99.99,,,0.00,0,weatherlink.com 1.10,2013-02-07 05:36:00,
2013-02-06 23:51:00,37.0,32.0,30.02,SSE,157,5.0,-999.0,82,-99.99,,,0.01,0,weatherlink.com 1.10,2013-02-07 05:51:00,